Time;durP1;ratioP1;P1;durP2;ratioP2;P2;SDS_P1;SDS_P2;PMS_P1;PMS_P2;Temp;Humidity;BMP_temperature;BMP_pressure;BME280_temperature;BME280_humidity;BME280_pressure;Samples;Min_cycle;Max_cycle;Signal;HPM_P1;HPM_P2
2021/07/09 00:01:02;;;;;;;;;30.75;26.50;;;;;;;;8847488;40;10846;-57
2021/07/09 00:07:04;;;;;;;;;29.00;28.00;;;;;;;;8847194;40;10906;-58
2021/07/09 00:13:06;;;;;;;;;32.67;31.33;;;;;;;;8848783;40;10187;-57
2021/07/09 00:19:08;;;;;;;;;29.00;27.25;;;;;;;;8847543;40;11189;-58
2021/07/09 00:25:11;;;;;;;;;29.25;27.50;;;;;;;;8846632;40;10663;-57
2021/07/09 00:31:13;;;;;;;;;29.75;28.50;;;;;;;;8847815;40;11399;-57
2021/07/09 00:37:15;;;;;;;;;37.25;32.00;;;;;;;;8846638;40;11225;-57
2021/07/09 00:43:17;;;;;;;;;32.25;28.50;;;;;;;;8847045;40;10594;-58
2021/07/09 00:49:20;;;;;;;;;35.50;30.25;;;;;;;;8845847;40;10845;-58
2021/07/09 00:55:23;;;;;;;;;26.25;26.25;;;;;;;;8845004;40;10891;-58
2021/07/09 01:01:25;;;;;;;;;33.75;31.00;;;;;;;;8847197;40;10736;-59
2021/07/09 01:07:27;;;;;;;;;27.25;26.25;;;;;;;;8845039;40;10877;-56
2021/07/09 01:13:29;;;;;;;;;29.67;29.67;;;;;;;;8847337;40;10463;-58
2021/07/09 01:19:32;;;;;;;;;31.25;27.50;;;;;;;;8845070;40;11475;-58
2021/07/09 01:25:33;;;;;;;;;28.00;26.50;;;;;;;;8845965;40;10747;-57
2021/07/09 01:31:37;;;;;;;;;38.67;33.00;;;;;;;;8845527;40;10449;-59
2021/07/09 01:37:40;;;;;;;;;30.75;29.50;;;;;;;;8844847;40;11873;-58
2021/07/09 01:43:47;;;;;;;;;33.00;30.00;;;;;;;;8845684;40;11063;-58
2021/07/09 01:49:56;;;;;;;;;34.50;32.50;;;;;;;;8845316;40;11098;-57
2021/07/09 01:55:57;;;;;;;;;32.50;29.25;;;;;;;;8844564;40;10823;-58
2021/07/09 02:01:59;;;;;;;;;32.33;29.33;;;;;;;;8845021;40;11063;-58
2021/07/09 02:08:02;;;;;;;;;42.33;37.00;;;;;;;;8847975;40;10350;-58
2021/07/09 02:14:04;;;;;;;;;31.33;31.00;;;;;;;;8849163;40;9909;-58
2021/07/09 02:20:08;;;;;;;;;33.33;31.33;;;;;;;;8848183;40;10161;-58
2021/07/09 02:26:10;;;;;;;;;36.00;32.33;;;;;;;;8848638;40;10530;-58
2021/07/09 02:32:13;;;;;;;;;35.33;33.67;;;;;;;;8849454;40;10394;-59
2021/07/09 02:38:15;;;;;;;;;33.33;31.33;;;;;;;;8847374;40;10560;-59
2021/07/09 02:44:17;;;;;;;;;33.67;32.00;;;;;;;;8849314;40;10095;-58
2021/07/09 02:50:21;;;;;;;;;35.75;34.00;;;;;;;;8854711;40;10977;-59
2021/07/09 02:56:23;;;;;;;;;34.00;34.00;;;;;;;;8848280;40;10140;-58
2021/07/09 03:02:26;;;;;;;;;41.00;37.33;;;;;;;;8848057;40;10922;-59
2021/07/09 03:08:28;;;;;;;;;34.67;34.67;;;;;;;;8855464;40;10425;-58
2021/07/09 03:14:30;;;;;;;;;39.33;36.33;;;;;;;;8838559;40;10192;-57
2021/07/09 03:20:32;;;;;;;;;36.67;33.00;;;;;;;;8846721;40;10345;-58
2021/07/09 03:26:34;;;;;;;;;34.33;34.33;;;;;;;;8846796;40;10612;-58
2021/07/09 03:32:36;;;;;;;;;34.00;31.25;;;;;;;;8848196;40;11281;-57
2021/07/09 03:38:38;;;;;;;;;37.00;33.00;;;;;;;;8847717;40;10783;-58
2021/07/09 03:44:40;;;;;;;;;37.00;33.00;;;;;;;;8847232;40;10469;-58
2021/07/09 03:50:41;;;;;;;;;40.75;35.50;;;;;;;;8847106;40;10978;-59
2021/07/09 03:56:43;;;;;;;;;37.00;34.00;;;;;;;;8846749;40;10263;-59
2021/07/09 04:02:45;;;;;;;;;36.50;34.50;;;;;;;;9912630;22;10771;-62
2021/07/09 04:08:47;;;;;;;;;39.25;33.25;;;;;;;;8847540;40;10855;-62
2021/07/09 04:14:49;;;;;;;;;33.00;33.00;;;;;;;;8838443;40;10646;-63
2021/07/09 04:20:51;;;;;;;;;34.75;32.75;;;;;;;;8834592;40;10693;-63
2021/07/09 04:26:53;;;;;;;;;38.75;36.75;;;;;;;;8849285;40;11536;-62
2021/07/09 04:32:55;;;;;;;;;33.33;30.67;;;;;;;;8848888;40;10707;-62
2021/07/09 04:38:57;;;;;;;;;33.75;31.50;;;;;;;;8839055;40;10766;-63
2021/07/09 04:44:59;;;;;;;;;35.00;32.75;;;;;;;;8843749;40;10945;-63
2021/07/09 04:51:02;;;;;;;;;33.75;30.25;;;;;;;;8825167;40;10717;-63
2021/07/09 04:57:04;;;;;;;;;31.25;31.25;;;;;;;;8815414;40;10674;-62
2021/07/09 05:03:05;;;;;;;;;32.50;31.50;;;;;;;;8829280;40;10573;-63
2021/07/09 05:09:07;;;;;;;;;33.25;31.50;;;;;;;;8843856;40;10509;-63
2021/07/09 05:15:09;;;;;;;;;29.25;29.25;;;;;;;;8843790;40;10618;-63
2021/07/09 05:21:11;;;;;;;;;32.25;29.25;;;;;;;;8834557;40;10494;-63
2021/07/09 05:27:15;;;;;;;;;32.25;29.00;;;;;;;;8823973;40;10775;-62
2021/07/09 05:33:17;;;;;;;;;31.25;28.50;;;;;;;;8823636;40;10678;-61
2021/07/09 05:39:19;;;;;;;;;30.50;30.50;;;;;;;;8833639;40;10484;-63
2021/07/09 05:45:22;;;;;;;;;34.00;31.75;;;;;;;;8846368;40;10524;-62
2021/07/09 05:51:25;;;;;;;;;31.75;31.75;;;;;;;;8840381;40;10562;-63
2021/07/09 05:57:27;;;;;;;;;39.75;36.25;;;;;;;;8839119;40;10932;-62
2021/07/09 06:03:28;;;;;;;;;25.75;25.75;;;;;;;;8845948;40;10248;-63
2021/07/09 06:09:32;;;;;;;;;30.75;30.00;;;;;;;;8832212;40;10565;-62
2021/07/09 06:15:35;;;;;;;;;32.25;29.00;;;;;;;;8847090;40;10323;-62
2021/07/09 06:21:52;;;;;;;;;28.75;28.00;;;;;;;;8843331;40;11193;-63
2021/07/09 06:27:53;;;;;;;;;30.25;26.00;;;;;;;;8830956;40;11153;-62
2021/07/09 06:33:55;;;;;;;;;38.25;35.00;;;;;;;;8837044;40;11147;-62
2021/07/09 06:39:57;;;;;;;;;33.00;32.00;;;;;;;;8836685;40;10851;-61
2021/07/09 06:46:00;;;;;;;;;29.00;26.25;;;;;;;;8840563;40;10373;-64
2021/07/09 06:52:03;;;;;;;;;24.25;24.00;;;;;;;;8842623;40;10308;-64
2021/07/09 06:58:05;;;;;;;;;24.25;23.25;;;;;;;;8840054;40;10804;-63
2021/07/09 07:04:09;;;;;;;;;24.50;23.50;;;;;;;;8839511;40;10556;-62
2021/07/09 07:10:12;;;;;;;;;22.25;21.25;;;;;;;;8828973;40;10992;-65
2021/07/09 07:16:14;;;;;;;;;23.25;22.25;;;;;;;;8828424;40;10560;-64
2021/07/09 07:22:16;;;;;;;;;26.75;25.50;;;;;;;;8829142;40;10446;-63
2021/07/09 07:28:19;;;;;;;;;20.50;19.50;;;;;;;;8828823;40;10236;-65
2021/07/09 07:34:41;;;;;;;;;25.75;20.50;;;;;;;;8830702;40;10394;-64
2021/07/09 07:40:43;;;;;;;;;21.75;20.75;;;;;;;;8822458;40;10768;-62
2021/07/09 07:46:48;;;;;;;;;21.75;20.75;;;;;;;;8830589;40;10308;-64
2021/07/09 07:52:50;;;;;;;;;22.50;20.00;;;;;;;;8829313;40;10565;-64
2021/07/09 07:58:53;;;;;;;;;20.00;20.00;;;;;;;;8831336;40;10588;-64
2021/07/09 08:04:56;;;;;;;;;21.75;18.50;;;;;;;;8832285;40;10982;-63
2021/07/09 08:10:59;;;;;;;;;23.00;23.00;;;;;;;;8838183;40;10866;-63
2021/07/09 08:17:03;;;;;;;;;20.25;20.25;;;;;;;;8838117;40;10652;-64
2021/07/09 08:23:05;;;;;;;;;20.75;20.75;;;;;;;;8813388;40;10353;-64
2021/07/09 08:29:06;;;;;;;;;21.25;21.25;;;;;;;;8834885;40;10434;-65
2021/07/09 08:35:26;;;;;;;;;25.50;24.50;;;;;;;;8840776;40;10383;-63
2021/07/09 08:41:27;;;;;;;;;18.25;18.25;;;;;;;;8840930;40;10291;-64
2021/07/09 08:47:33;;;;;;;;;18.00;18.00;;;;;;;;8832484;40;10253;-63
2021/07/09 08:53:36;;;;;;;;;22.25;20.25;;;;;;;;8838682;40;10590;-63
2021/07/09 08:59:38;;;;;;;;;23.00;21.75;;;;;;;;8834013;40;10341;-62
2021/07/09 09:05:41;;;;;;;;;17.50;17.50;;;;;;;;8830350;40;10337;-63
2021/07/09 09:12:00;;;;;;;;;17.00;14.00;;;;;;;;8826745;40;10266;-64
2021/07/09 09:18:19;;;;;;;;;18.00;16.00;;;;;;;;8836803;40;10345;-64
2021/07/09 09:24:28;;;;;;;;;14.25;14.25;;;;;;;;8839327;40;10288;-62
2021/07/09 09:30:30;;;;;;;;;18.25;15.75;;;;;;;;8841608;40;10560;-64
2021/07/09 09:36:34;;;;;;;;;15.75;15.75;;;;;;;;8850455;40;10731;-64
2021/07/09 09:42:39;;;;;;;;;17.75;16.00;;;;;;;;8842393;40;10578;-64
2021/07/09 09:48:46;;;;;;;;;18.25;18.25;;;;;;;;8843851;40;10359;-64
2021/07/09 09:54:48;;;;;;;;;15.25;15.25;;;;;;;;8840504;40;11533;-65
2021/07/09 10:00:53;;;;;;;;;13.75;12.50;;;;;;;;8838802;40;10492;-65
2021/07/09 10:06:56;;;;;;;;;12.50;11.50;;;;;;;;8836530;40;10279;-63
2021/07/09 10:12:59;;;;;;;;;9.50;9.50;;;;;;;;8844918;40;10322;-65
2021/07/09 10:19:02;;;;;;;;;17.25;16.25;;;;;;;;8839799;40;10348;-63
2021/07/09 10:25:05;;;;;;;;;15.50;15.50;;;;;;;;8836881;40;10505;-66
2021/07/09 10:31:15;;;;;;;;;11.75;11.75;;;;;;;;8842310;40;10312;-63
2021/07/09 10:37:30;;;;;;;;;10.75;9.75;;;;;;;;8838826;40;10246;-63
2021/07/09 10:43:36;;;;;;;;;14.75;13.50;;;;;;;;8831714;40;10470;-64
2021/07/09 10:49:50;;;;;;;;;12.00;12.00;;;;;;;;8836137;40;11701;-63
2021/07/09 10:55:57;;;;;;;;;14.75;13.50;;;;;;;;8837846;40;10333;-65
2021/07/09 11:01:58;;;;;;;;;14.75;13.25;;;;;;;;8842703;40;10494;-65
2021/07/09 11:08:29;;;;;;;;;14.75;13.75;;;;;;;;8834187;40;10457;-64
2021/07/09 11:14:39;;;;;;;;;13.00;12.00;;;;;;;;8836483;40;10286;-63
2021/07/09 11:20:45;;;;;;;;;9.50;9.50;;;;;;;;8830106;40;10340;-64
2021/07/09 11:26:56;;;;;;;;;14.00;14.00;;;;;;;;8847031;40;10564;-63
2021/07/09 11:33:03;;;;;;;;;16.75;15.75;;;;;;;;8838144;40;10325;-63
2021/07/09 11:39:17;;;;;;;;;8.50;8.50;;;;;;;;8838149;40;10304;-63
2021/07/09 11:45:19;;;;;;;;;16.25;15.00;;;;;;;;8820945;40;10509;-65
2021/07/09 11:51:21;;;;;;;;;11.00;11.00;;;;;;;;8841405;40;10260;-65
2021/07/09 11:57:29;;;;;;;;;14.25;12.25;;;;;;;;8840052;40;10510;-63
2021/07/09 12:03:49;;;;;;;;;16.75;15.50;;;;;;;;8833257;40;10458;-64
2021/07/09 12:09:54;;;;;;;;;17.00;13.50;;;;;;;;8817114;40;10539;-64
2021/07/09 12:16:03;;;;;;;;;13.00;13.00;;;;;;;;8834845;40;10344;-63
2021/07/09 12:22:05;;;;;;;;;14.25;14.25;;;;;;;;8833236;40;10398;-64
2021/07/09 12:28:10;;;;;;;;;12.50;12.50;;;;;;;;8834715;40;10689;-64
2021/07/09 12:34:22;;;;;;;;;13.00;13.00;;;;;;;;8826047;40;10522;-64
2021/07/09 12:40:31;;;;;;;;;12.75;12.75;;;;;;;;8828593;40;10317;-63
2021/07/09 12:46:34;;;;;;;;;17.50;15.00;;;;;;;;8836122;40;10373;-64
2021/07/09 12:52:36;;;;;;;;;14.75;12.50;;;;;;;;8847811;40;10303;-64
2021/07/09 12:58:38;;;;;;;;;14.00;14.00;;;;;;;;8835282;40;10516;-64
2021/07/09 13:04:45;;;;;;;;;14.00;10.75;;;;;;;;8823135;40;10390;-63
2021/07/09 13:11:07;;;;;;;;;16.75;16.75;;;;;;;;8846235;40;10370;-64
2021/07/09 13:17:17;;;;;;;;;18.50;14.50;;;;;;;;8846234;40;10263;-61
2021/07/09 13:23:19;;;;;;;;;13.50;13.25;;;;;;;;8845172;40;10293;-62
2021/07/09 13:29:23;;;;;;;;;15.50;15.50;;;;;;;;8833636;40;10381;-65
2021/07/09 13:35:25;;;;;;;;;14.75;14.75;;;;;;;;8822795;40;10548;-63
2021/07/09 13:41:28;;;;;;;;;16.00;16.00;;;;;;;;8818140;40;10395;-64
2021/07/09 13:47:30;;;;;;;;;14.75;14.75;;;;;;;;8837173;40;10523;-64
2021/07/09 13:53:31;;;;;;;;;19.50;16.75;;;;;;;;8866693;40;10306;-62
2021/07/09 13:59:33;;;;;;;;;13.50;13.00;;;;;;;;8847356;40;10386;-63
2021/07/09 14:05:35;;;;;;;;;13.00;13.00;;;;;;;;8849964;40;10326;-63
2021/07/09 14:11:37;;;;;;;;;18.50;17.50;;;;;;;;8848332;40;10403;-64
2021/07/09 14:17:39;;;;;;;;;15.00;13.00;;;;;;;;8825681;40;10534;-63
2021/07/09 14:23:41;;;;;;;;;14.25;13.25;;;;;;;;8824978;40;11208;-62
2021/07/09 14:29:43;;;;;;;;;16.00;16.00;;;;;;;;8825754;40;10273;-63
2021/07/09 14:35:45;;;;;;;;;16.25;16.00;;;;;;;;8833286;40;10891;-64
2021/07/09 14:41:47;;;;;;;;;20.50;18.00;;;;;;;;8849040;40;10307;-64
2021/07/09 14:47:49;;;;;;;;;14.50;14.50;;;;;;;;8848426;40;10600;-67
2021/07/09 14:53:51;;;;;;;;;15.00;14.50;;;;;;;;8836916;40;10215;-62
2021/07/09 15:00:09;;;;;;;;;15.00;14.75;;;;;;;;8825683;40;10581;-63
2021/07/09 15:06:11;;;;;;;;;16.25;16.25;;;;;;;;8825350;40;10352;-63
2021/07/09 15:12:14;;;;;;;;;15.50;13.50;;;;;;;;8824472;40;10327;-63
2021/07/09 15:18:16;;;;;;;;;16.00;15.50;;;;;;;;8827423;40;10256;-63
2021/07/09 15:24:18;;;;;;;;;14.25;14.25;;;;;;;;8849285;40;10383;-63
2021/07/09 15:30:20;;;;;;;;;18.75;17.75;;;;;;;;8848602;40;10452;-65
2021/07/09 15:36:30;;;;;;;;;19.00;19.00;;;;;;;;8848656;40;10340;-64
2021/07/09 15:42:33;;;;;;;;;19.50;19.50;;;;;;;;8849420;40;10378;-63
2021/07/09 15:48:35;;;;;;;;;18.75;18.50;;;;;;;;8832475;40;10460;-63
2021/07/09 15:54:37;;;;;;;;;17.75;17.00;;;;;;;;8864314;40;10400;-64
2021/07/09 16:00:39;;;;;;;;;20.00;19.00;;;;;;;;8848646;40;10347;-62
2021/07/09 16:06:41;;;;;;;;;19.25;17.50;;;;;;;;8828140;40;10563;-63
2021/07/09 16:12:47;;;;;;;;;18.75;18.75;;;;;;;;8823850;40;10593;-64
2021/07/09 16:18:49;;;;;;;;;21.75;17.25;;;;;;;;8833761;40;10329;-65
2021/07/09 16:24:50;;;;;;;;;29.50;28.50;;;;;;;;8847705;40;10922;-64
2021/07/09 16:30:59;;;;;;;;;19.25;19.00;;;;;;;;8847569;40;10370;-63
2021/07/09 16:37:01;;;;;;;;;17.50;17.00;;;;;;;;8848423;40;10269;-65
2021/07/09 16:43:03;;;;;;;;;23.25;19.00;;;;;;;;8847814;40;11183;-63
2021/07/09 16:49:05;;;;;;;;;17.75;17.75;;;;;;;;8847045;40;10263;-62
2021/07/09 16:55:07;;;;;;;;;23.75;23.75;;;;;;;;8848598;40;10362;-62
2021/07/09 17:01:09;;;;;;;;;20.00;20.00;;;;;;;;8849583;40;10349;-64
2021/07/09 17:07:11;;;;;;;;;24.00;23.25;;;;;;;;8847639;40;10414;-63
2021/07/09 17:13:13;;;;;;;;;23.00;19.50;;;;;;;;8847348;40;10336;-62
2021/07/09 17:19:15;;;;;;;;;22.00;21.50;;;;;;;;8848312;40;10374;-64
2021/07/09 17:25:17;;;;;;;;;19.00;19.00;;;;;;;;8846713;40;10404;-64
2021/07/09 17:31:19;;;;;;;;;21.00;21.00;;;;;;;;8847811;40;10804;-63
2021/07/09 17:37:25;;;;;;;;;21.50;21.50;;;;;;;;8849844;40;10364;-62
2021/07/09 17:43:27;;;;;;;;;18.25;17.50;;;;;;;;8840948;40;10307;-63
2021/07/09 17:49:29;;;;;;;;;25.50;25.50;;;;;;;;8826009;40;10508;-63
2021/07/09 17:55:31;;;;;;;;;20.25;19.25;;;;;;;;8827300;40;10502;-64
2021/07/09 18:01:33;;;;;;;;;25.00;22.75;;;;;;;;8835716;40;10318;-64
2021/07/09 18:07:35;;;;;;;;;22.75;21.50;;;;;;;;8850792;40;10358;-63
2021/07/09 18:13:38;;;;;;;;;28.00;23.75;;;;;;;;8851204;40;10562;-63
2021/07/09 18:19:40;;;;;;;;;21.50;21.50;;;;;;;;8849936;40;10257;-64
2021/07/09 18:25:42;;;;;;;;;53.75;46.25;;;;;;;;8839862;40;11575;-63
2021/07/09 18:31:45;;;;;;;;;37.50;33.50;;;;;;;;8849662;40;10664;-62
2021/07/09 18:37:47;;;;;;;;;23.00;22.00;;;;;;;;8848922;40;10353;-63
2021/07/09 18:43:52;;;;;;;;;25.50;22.00;;;;;;;;8850077;40;10906;-62
2021/07/09 18:49:53;;;;;;;;;32.25;25.25;;;;;;;;8825292;40;10559;-62
2021/07/09 18:55:55;;;;;;;;;25.25;25.00;;;;;;;;8832183;40;10503;-63
2021/07/09 19:01:58;;;;;;;;;31.25;29.75;;;;;;;;8849057;40;10381;-63
2021/07/09 19:08:00;;;;;;;;;27.75;26.25;;;;;;;;8824720;40;10532;-64
2021/07/09 19:14:02;;;;;;;;;23.00;22.75;;;;;;;;8824469;40;10565;-63
2021/07/09 19:20:05;;;;;;;;;25.25;25.25;;;;;;;;8845218;40;11214;-64
2021/07/09 19:26:07;;;;;;;;;24.25;20.50;;;;;;;;8848911;40;10388;-64
2021/07/09 19:32:08;;;;;;;;;22.25;22.25;;;;;;;;8848762;40;10439;-63
2021/07/09 19:38:11;;;;;;;;;22.50;21.00;;;;;;;;8848316;40;10480;-62
2021/07/09 19:44:13;;;;;;;;;25.00;20.50;;;;;;;;8849518;40;10854;-63
2021/07/09 19:50:16;;;;;;;;;24.00;22.75;;;;;;;;8596019;40;10002598;-62
2021/07/09 19:56:18;;;;;;;;;26.25;21.75;;;;;;;;8848483;40;10330;-64
2021/07/09 20:02:21;;;;;;;;;17.75;17.75;;;;;;;;8848413;40;10296;-63
2021/07/09 20:08:23;;;;;;;;;16.50;16.50;;;;;;;;8848749;40;10832;-64
2021/07/09 20:14:25;;;;;;;;;15.50;15.50;;;;;;;;8847621;40;10355;-62
2021/07/09 20:20:27;;;;;;;;;18.75;18.25;;;;;;;;8848284;40;10344;-63
2021/07/09 20:26:29;;;;;;;;;21.00;19.00;;;;;;;;8839031;40;10544;-63
2021/07/09 20:32:31;;;;;;;;;22.50;22.00;;;;;;;;8823648;40;10383;-63
2021/07/09 20:38:34;;;;;;;;;20.50;19.25;;;;;;;;8829485;40;10507;-63
2021/07/09 20:44:35;;;;;;;;;18.00;18.00;;;;;;;;8847544;40;10253;-62
2021/07/09 20:50:44;;;;;;;;;20.50;19.25;;;;;;;;8842435;40;10383;-63
2021/07/09 20:56:46;;;;;;;;;19.75;16.25;;;;;;;;8823122;40;10233;-62
2021/07/09 21:02:49;;;;;;;;;20.00;18.75;;;;;;;;8822833;40;10704;-64
2021/07/09 21:08:51;;;;;;;;;16.00;14.75;;;;;;;;8822367;40;10357;-63
2021/07/09 21:14:53;;;;;;;;;16.00;16.00;;;;;;;;8823281;40;10299;-61
2021/07/09 21:20:56;;;;;;;;;16.50;16.50;;;;;;;;8822747;40;10324;-63
2021/07/09 21:26:58;;;;;;;;;16.25;16.25;;;;;;;;8823212;40;10817;-62
2021/07/09 21:33:00;;;;;;;;;17.75;17.50;;;;;;;;8822566;40;10514;-63
2021/07/09 21:39:04;;;;;;;;;16.25;16.25;;;;;;;;8822436;40;10457;-61
2021/07/09 21:45:08;;;;;;;;;20.50;18.75;;;;;;;;8821301;40;10590;-61
2021/07/09 21:51:10;;;;;;;;;17.25;16.75;;;;;;;;8821876;40;10455;-61
2021/07/09 21:57:11;;;;;;;;;19.00;16.75;;;;;;;;8821660;40;10634;-62
2021/07/09 22:03:13;;;;;;;;;16.75;16.75;;;;;;;;8821908;40;10441;-62
2021/07/09 22:09:15;;;;;;;;;19.00;16.50;;;;;;;;8821973;40;10436;-61
2021/07/09 22:15:17;;;;;;;;;20.25;18.25;;;;;;;;8820959;40;10648;-62
2021/07/09 22:21:19;;;;;;;;;17.25;17.25;;;;;;;;8823652;40;10394;-62
2021/07/09 22:27:22;;;;;;;;;19.75;18.25;;;;;;;;8828281;40;10427;-62
2021/07/09 22:33:24;;;;;;;;;16.75;15.00;;;;;;;;8849098;40;10622;-61
2021/07/09 22:39:26;;;;;;;;;12.75;12.75;;;;;;;;8843416;40;10307;-61
2021/07/09 22:45:28;;;;;;;;;17.50;17.50;;;;;;;;8824927;40;10439;-62
2021/07/09 22:51:30;;;;;;;;;17.00;15.00;;;;;;;;8824788;40;10867;-62
2021/07/09 22:57:32;;;;;;;;;17.00;16.00;;;;;;;;8825799;40;10757;-62
2021/07/09 23:03:34;;;;;;;;;15.75;14.00;;;;;;;;8824947;40;10525;-62
2021/07/09 23:09:36;;;;;;;;;17.25;14.50;;;;;;;;8824728;40;10640;-62
2021/07/09 23:15:39;;;;;;;;;14.25;12.00;;;;;;;;8836289;40;10948;-62
2021/07/09 23:21:40;;;;;;;;;15.25;14.25;;;;;;;;8848953;40;10508;-61
2021/07/09 23:27:44;;;;;;;;;16.00;15.25;;;;;;;;8849146;40;11117;-61
2021/07/09 23:33:45;;;;;;;;;13.25;13.00;;;;;;;;8848241;40;10407;-61
2021/07/09 23:39:47;;;;;;;;;16.75;16.75;;;;;;;;8825097;40;10681;-61
2021/07/09 23:45:49;;;;;;;;;14.50;14.50;;;;;;;;8824467;40;10344;-62
2021/07/09 23:51:51;;;;;;;;;16.25;16.25;;;;;;;;8825126;40;10444;-61
2021/07/09 23:57:54;;;;;;;;;16.25;16.25;;;;;;;;8824055;40;10606;-62
